Terminal Aerodrome Forecast
Issued by NWS

Home | Current Version | Previous Version | Text Only | Print | Product List | Glossary On
Versions: 1 2 3 4 5 6 7 8 9 10 11 12 13 14 15 16
000
FTUS45 KGJT 222339
TAFTEX
TAF
KTEX 222339Z 2300/2324 20010G20KT P6SM SCT080
     FM230200 24015G25KT P6SM BKN060 WS020/22045KT
     FM230600 21015G30KT P6SM VCSH BKN035 WS020/22045KT
     FM231200 25020G35KT 3SM -SN BLSN OVC015
     FM231800 26015G25KT P6SM BKN020=

USA.gov is the U.S. government's official web portal to all federal, state and local government web resources and services.